createdAt,value
2022-09-18T00:01:18.182Z,95859.44
2022-09-18T00:03:45.805Z,95854.75
2022-09-18T00:06:16.779Z,95852.50
2022-09-18T00:08:43.808Z,95852.44
2022-09-18T00:11:12.804Z,95854.47
2022-09-18T00:13:41.295Z,95851.91
2022-09-18T00:16:10.264Z,95848.41
2022-09-18T00:18:37.069Z,95851.06
2022-09-18T00:21:09.333Z,95848.66
2022-09-18T00:23:36.104Z,95847.81
2022-09-18T00:26:03.907Z,95847.66
2022-09-18T00:28:30.523Z,95844.06
2022-09-18T00:31:23.855Z,95849.50
2022-09-18T00:33:50.380Z,95849.31
2022-09-18T00:36:17.881Z,95843.72
2022-09-18T00:38:45.655Z,95850.31
2022-09-18T00:41:16.731Z,95838.47
2022-09-18T00:43:43.469Z,95843.72
2022-09-18T00:46:26.376Z,95833.69
2022-09-18T00:49:01.757Z,95834.44
2022-09-18T00:51:30.999Z,95834.06
2022-09-18T00:54:19.382Z,95837.00
2022-09-18T00:56:48.606Z,95835.34
2022-09-18T00:59:24.015Z,95838.00
2022-09-18T01:01:50.656Z,95834.06
2022-09-18T01:04:17.391Z,95837.97
2022-09-18T01:06:56.893Z,95835.03
2022-09-18T01:09:50.867Z,95828.41
2022-09-18T01:12:40.880Z,95831.47
2022-09-18T01:15:47.193Z,95833.25
2022-09-18T01:18:31.447Z,95828.28
2022-09-18T01:21:07.613Z,95818.88
2022-09-18T01:23:49.184Z,95825.47
2022-09-18T01:26:15.682Z,95825.81
2022-09-18T01:28:59.143Z,95825.50
2022-09-18T01:31:31.097Z,95821.50
2022-09-18T01:34:13.836Z,95827.72
2022-09-18T01:36:47.773Z,95817.22
2022-09-18T01:39:26.941Z,95816.09
2022-09-18T01:41:56.130Z,95823.00
2022-09-18T01:44:30.215Z,95815.56
2022-09-18T01:47:00.365Z,95819.88
2022-09-18T01:49:39.144Z,95820.94
2022-09-18T01:52:16.417Z,95808.84
2022-09-18T01:54:48.554Z,95817.41
2022-09-18T01:57:20.499Z,95817.00
2022-09-18T02:00:04.306Z,95817.56
2022-09-18T02:02:43.754Z,95814.31
2022-09-18T02:05:18.256Z,95819.94
2022-09-18T02:08:06.701Z,95816.03
2022-09-18T02:10:39.702Z,95824.59
2022-09-18T02:13:11.395Z,95824.00
2022-09-18T02:15:41.505Z,95816.50
2022-09-18T02:18:21.088Z,95821.31
2022-09-18T02:20:48.339Z,95829.69
2022-09-18T02:23:16.615Z,95835.94
2022-09-18T02:25:53.706Z,95819.91
2022-09-18T02:28:25.197Z,95829.06
2022-09-18T02:30:51.766Z,95829.38
2022-09-18T02:33:33.180Z,95822.28
2022-09-18T02:36:30.893Z,95818.41
2022-09-18T02:39:27.211Z,95819.31
2022-09-18T02:42:22.030Z,95815.56
2022-09-18T02:44:54.659Z,95824.13
2022-09-18T02:47:49.019Z,95819.06
2022-09-18T02:50:26.877Z,95825.75
2022-09-18T02:53:27.989Z,95825.00
2022-09-18T02:56:01.238Z,95817.03
2022-09-18T02:58:46.674Z,95819.94
2022-09-18T03:01:17.482Z,95818.53
2022-09-18T03:03:44.047Z,95816.91
2022-09-18T03:06:10.536Z,95821.41
2022-09-18T03:08:37.201Z,95830.28
2022-09-18T03:11:04.411Z,95825.94
2022-09-18T03:13:30.958Z,95824.38
2022-09-18T03:15:58.075Z,95819.84
2022-09-18T03:18:24.634Z,95823.47
2022-09-18T03:20:51.143Z,95823.38
2022-09-18T03:23:17.695Z,95823.59
2022-09-18T03:25:44.156Z,95822.84
2022-09-18T03:28:10.651Z,95824.13
2022-09-18T03:30:37.221Z,95820.47
2022-09-18T03:33:03.784Z,95826.66
2022-09-18T03:35:30.273Z,95826.03
2022-09-18T03:37:56.740Z,95834.22
2022-09-18T03:40:23.290Z,95829.00
2022-09-18T03:42:49.809Z,95825.97
2022-09-18T03:45:16.309Z,95818.88
2022-09-18T03:47:42.773Z,95818.75
2022-09-18T03:50:09.653Z,95814.75
2022-09-18T03:52:36.186Z,95815.47
2022-09-18T03:55:02.802Z,95816.81
2022-09-18T03:57:29.268Z,95816.56
2022-09-18T03:59:55.774Z,95812.41
2022-09-18T04:02:22.264Z,95822.88
2022-09-18T04:04:48.833Z,95816.59
2022-09-18T04:07:15.403Z,95821.78
2022-09-18T04:09:41.918Z,95821.47
2022-09-18T04:12:08.403Z,95831.56
2022-09-18T04:14:35.035Z,95827.38
2022-09-18T04:17:01.520Z,95828.63
2022-09-18T04:19:27.988Z,95830.03
2022-09-18T04:21:54.484Z,95828.06
2022-09-18T04:24:20.974Z,95825.69
2022-09-18T04:26:47.540Z,95820.88
2022-09-18T04:29:14.078Z,95831.56
2022-09-18T04:31:40.616Z,95829.13
2022-09-18T04:34:07.154Z,95828.78
2022-09-18T04:36:33.646Z,95835.53
2022-09-18T04:39:00.271Z,95843.19
2022-09-18T04:41:26.790Z,95835.94
2022-09-18T04:43:53.317Z,95835.78
2022-09-18T04:46:19.910Z,95837.44
2022-09-18T04:48:49.309Z,95841.19
2022-09-18T04:51:16.491Z,95844.94
2022-09-18T04:53:43.009Z,95840.78
2022-09-18T04:56:09.561Z,95846.25
2022-09-18T04:58:36.026Z,95838.38
2022-09-18T05:01:02.763Z,95839.31
2022-09-18T05:03:30.281Z,95837.44
2022-09-18T05:05:56.865Z,95837.31
2022-09-18T05:08:23.973Z,95839.88
2022-09-18T05:10:50.588Z,95827.56
2022-09-18T05:13:17.097Z,95835.66
2022-09-18T05:15:43.626Z,95836.13
2022-09-18T05:18:11.992Z,95840.94
2022-09-18T05:20:38.867Z,95840.09
2022-09-18T05:23:05.794Z,95836.13
2022-09-18T05:25:32.549Z,95838.78
2022-09-18T05:28:01.774Z,95833.84
2022-09-18T05:30:29.727Z,95836.47
2022-09-18T05:33:02.521Z,95840.44
2022-09-18T05:35:32.020Z,95843.25
2022-09-18T05:37:58.649Z,95843.25
2022-09-18T05:40:28.180Z,95849.84
2022-09-18T05:42:54.680Z,95857.78
2022-09-18T05:45:22.054Z,95847.38
2022-09-18T05:47:57.399Z,95850.66
2022-09-18T05:50:25.424Z,95842.09
2022-09-18T05:53:03.773Z,95846.38
2022-09-18T05:55:32.252Z,95836.81
2022-09-18T05:58:00.837Z,95858.25
2022-09-18T06:00:30.055Z,95850.31
2022-09-18T06:02:59.223Z,95852.31
2022-09-18T06:05:28.120Z,95851.97
2022-09-18T06:07:59.075Z,95849.28
2022-09-18T06:10:26.906Z,95851.25
2022-09-18T06:13:11.192Z,95855.84
2022-09-18T06:15:37.800Z,95854.53
2022-09-18T06:18:05.834Z,95855.16
2022-09-18T06:20:32.348Z,95862.22
2022-09-18T06:23:00.506Z,95861.38
2022-09-18T06:25:28.387Z,95863.50
2022-09-18T06:28:00.012Z,95863.63
2022-09-18T06:30:32.218Z,95864.91
2022-09-18T06:33:08.664Z,95856.34
2022-09-18T06:35:36.651Z,95870.09
2022-09-18T06:38:05.073Z,95866.09
2022-09-18T06:40:33.044Z,95867.03
2022-09-18T06:43:01.559Z,95872.91
2022-09-18T06:45:29.630Z,95870.22
2022-09-18T06:48:01.055Z,95875.59
2022-09-18T06:50:27.660Z,95871.34
2022-09-18T06:52:54.126Z,95872.53
2022-09-18T06:55:20.575Z,95867.97
2022-09-18T06:57:57.058Z,95873.41
2022-09-18T07:00:24.981Z,95871.38
2022-09-18T07:03:02.198Z,95874.78
2022-09-18T07:05:32.629Z,95869.00
2022-09-18T07:07:59.756Z,95874.84
2022-09-18T07:10:26.454Z,95880.75
2022-09-18T07:12:56.958Z,95875.75
2022-09-18T07:15:23.416Z,95886.91
2022-09-18T07:17:49.848Z,95880.09
2022-09-18T07:20:16.450Z,95885.03
2022-09-18T07:22:47.277Z,95881.19
2022-09-18T07:25:14.099Z,95887.28
2022-09-18T07:27:40.562Z,95891.75
2022-09-18T07:30:07.425Z,95886.69
2022-09-18T07:32:35.463Z,95882.03
2022-09-18T07:35:01.987Z,95887.88
2022-09-18T07:37:28.454Z,95882.09
2022-09-18T07:39:54.942Z,95885.88
2022-09-18T07:42:21.499Z,95883.34
2022-09-18T07:44:47.944Z,95876.13
2022-09-18T07:47:14.398Z,95885.31
2022-09-18T07:49:40.958Z,95891.91
2022-09-18T07:52:07.456Z,95883.31
2022-09-18T07:54:34.866Z,95882.59
2022-09-18T07:57:01.319Z,95873.03
2022-09-18T07:59:27.770Z,95874.72
2022-09-18T08:01:54.285Z,95889.50
2022-09-18T08:04:21.696Z,95888.75
2022-09-18T08:06:52.147Z,95896.41
2022-09-18T08:09:18.865Z,95901.78
2022-09-18T08:11:46.055Z,95898.50
2022-09-18T08:14:12.667Z,95898.34
2022-09-18T08:16:39.209Z,95897.97
2022-09-18T08:19:05.754Z,95894.47
2022-09-18T08:21:32.260Z,95887.91
2022-09-18T08:23:58.741Z,95880.25
2022-09-18T08:26:25.189Z,95883.75
2022-09-18T08:28:51.732Z,95887.69
2022-09-18T08:31:18.241Z,95884.44
2022-09-18T08:33:45.554Z,95875.84
2022-09-18T08:36:12.091Z,95878.50
2022-09-18T08:38:38.539Z,95882.34
2022-09-18T08:41:21.279Z,95878.47
2022-09-18T08:44:05.820Z,95887.28
2022-09-18T08:46:41.551Z,95888.06
2022-09-18T08:49:23.310Z,95890.28
2022-09-18T08:52:10.891Z,95891.69
2022-09-18T08:54:44.955Z,95902.22
2022-09-18T08:57:17.904Z,95891.72
2022-09-18T08:59:55.254Z,95897.41
2022-09-18T09:02:47.364Z,95891.72
2022-09-18T09:05:21.329Z,95886.78
2022-09-18T09:08:06.758Z,95886.03
2022-09-18T09:10:51.832Z,95891.25
2022-09-18T09:13:49.072Z,95878.69
2022-09-18T09:16:28.388Z,95881.47
2022-09-18T09:19:32.115Z,95884.53
2022-09-18T09:22:40.236Z,95884.38
2022-09-18T09:25:34.622Z,95881.47
2022-09-18T09:28:18.149Z,95891.72
2022-09-18T09:30:50.992Z,95891.81
2022-09-18T09:33:37.758Z,95881.72
2022-09-18T09:36:13.474Z,95877.91
2022-09-18T09:39:05.924Z,95891.94
2022-09-18T09:41:51.794Z,95886.22
2022-09-18T09:44:25.097Z,95884.66
2022-09-18T09:47:19.326Z,95888.34
2022-09-18T09:50:10.575Z,95883.25
2022-09-18T09:52:41.771Z,95884.16
2022-09-18T09:55:19.533Z,95875.13
2022-09-18T09:58:01.278Z,95891.09
2022-09-18T10:00:38.109Z,95881.69
2022-09-18T10:03:24.781Z,95891.50
2022-09-18T10:06:11.406Z,95882.53
2022-09-18T10:08:44.135Z,95888.28
2022-09-18T10:11:14.043Z,95872.59
2022-09-18T10:13:52.558Z,95875.66
2022-09-18T10:16:27.497Z,95869.13
2022-09-18T10:18:54.111Z,95878.94
2022-09-18T10:21:42.428Z,95884.25
2022-09-18T10:24:19.225Z,95882.13
2022-09-18T10:26:59.218Z,95876.50
2022-09-18T10:29:25.795Z,95880.19
2022-09-18T10:31:58.901Z,95874.06
2022-09-18T10:34:38.862Z,95867.50
2022-09-18T10:37:14.624Z,95869.94
2022-09-18T10:42:54.343Z,95869.88
2022-09-18T10:45:25.297Z,95864.22
2022-09-18T10:48:06.301Z,95865.44
2022-09-18T10:50:34.515Z,95869.50
2022-09-18T10:53:33.941Z,95872.25
2022-09-18T10:56:15.290Z,95859.25
2022-09-18T10:58:41.787Z,95865.47
2022-09-18T11:01:10.855Z,95858.59
2022-09-18T11:03:58.033Z,95869.25
2022-09-18T11:06:28.319Z,95858.66
2022-09-18T11:09:00.004Z,95860.41
2022-09-18T11:11:35.991Z,95851.78
2022-09-18T11:14:06.825Z,95857.38
2022-09-18T11:16:42.083Z,95860.63
2022-09-18T11:19:12.067Z,95855.78
2022-09-18T11:21:48.853Z,95854.09
2022-09-18T11:24:31.105Z,95855.78
2022-09-18T11:27:00.409Z,95851.53
2022-09-18T11:29:39.076Z,95857.91
2022-09-18T11:32:20.734Z,95851.25
2022-09-18T11:35:01.496Z,95848.81
2022-09-18T11:37:36.820Z,95837.66
2022-09-18T11:40:16.361Z,95842.09
2022-09-18T11:42:46.817Z,95833.13
2022-09-18T11:45:34.289Z,95839.25
2022-09-18T11:48:27.497Z,95837.66
2022-09-18T11:51:04.508Z,95833.16
2022-09-18T11:53:44.382Z,95835.38
2022-09-18T11:56:46.529Z,95837.63
2022-09-18T11:59:29.697Z,95831.31
2022-09-18T12:02:05.591Z,95820.84
2022-09-18T12:04:52.851Z,95817.16
2022-09-18T12:07:41.877Z,95817.22
2022-09-18T12:10:24.192Z,95813.94
2022-09-18T12:13:18.053Z,95816.38
2022-09-18T12:15:56.788Z,95815.75
2022-09-18T12:18:36.751Z,95809.44
2022-09-18T12:21:13.937Z,95813.09
2022-09-18T12:23:41.039Z,95812.91
2022-09-18T12:26:58.557Z,95809.19
2022-09-18T12:30:01.692Z,95800.81
2022-09-18T12:32:49.509Z,95790.91
2022-09-18T12:35:25.342Z,95792.69
2022-09-18T12:38:06.885Z,95794.09
2022-09-18T12:40:52.399Z,95794.88
2022-09-18T12:43:26.396Z,95790.19
2022-09-18T12:45:58.609Z,95784.81
2022-09-18T12:48:36.801Z,95791.75
2022-09-18T12:51:26.179Z,95773.16
2022-09-18T12:54:06.847Z,95771.41
2022-09-18T12:57:01.357Z,95770.78
2022-09-18T12:59:52.149Z,95774.94
2022-09-18T13:02:51.387Z,95773.91
2022-09-18T13:05:29.436Z,95765.69
2022-09-18T13:08:21.416Z,95769.03
2022-09-18T13:10:53.290Z,95774.66
2022-09-18T13:13:39.794Z,95764.44
2022-09-18T13:16:17.603Z,95759.00
2022-09-18T13:19:13.115Z,95755.50
2022-09-18T13:21:43.715Z,95758.13
2022-09-18T13:24:22.305Z,95745.94
2022-09-18T13:26:51.991Z,95750.53
2022-09-18T13:29:46.124Z,95749.19
2022-09-18T13:32:16.857Z,95748.97
2022-09-18T13:35:14.042Z,95745.00
2022-09-18T13:37:42.665Z,95742.56
2022-09-18T13:40:34.108Z,95737.44
2022-09-18T13:43:17.706Z,95743.34
2022-09-18T13:45:44.182Z,95746.50
2022-09-18T13:48:22.885Z,95745.50
2022-09-18T13:50:57.483Z,95745.91
2022-09-18T13:53:53.975Z,95736.91
2022-09-18T13:56:20.484Z,95732.72
2022-09-18T13:58:48.644Z,95734.16
2022-09-18T14:01:41.073Z,95728.66
2022-09-18T14:04:42.113Z,95726.84
2022-09-18T14:07:17.344Z,95720.09
2022-09-18T14:09:51.226Z,95720.06
2022-09-18T14:12:19.579Z,95724.16
2022-09-18T14:15:00.251Z,95714.75
2022-09-18T14:17:28.212Z,95716.06
2022-09-18T14:20:00.372Z,95719.63
2022-09-18T14:22:30.808Z,95711.63
2022-09-18T14:24:59.862Z,95712.47
2022-09-18T14:27:55.777Z,95711.53
2022-09-18T14:30:30.602Z,95725.66
2022-09-18T14:33:14.799Z,95716.56
2022-09-18T14:35:57.380Z,95709.03
2022-09-18T14:38:38.275Z,95709.03
2022-09-18T14:41:24.631Z,95709.03
2022-09-18T14:43:55.476Z,95693.06
2022-09-18T14:46:24.718Z,95690.06
2022-09-18T14:48:52.095Z,95704.06
2022-09-18T14:51:24.905Z,95695.91
2022-09-18T14:53:54.806Z,95702.34
2022-09-18T14:56:29.452Z,95692.16
2022-09-18T14:58:59.968Z,95694.22
2022-09-18T15:01:32.142Z,95692.81
2022-09-18T15:04:03.812Z,95690.50
2022-09-18T15:06:38.279Z,95688.31
2022-09-18T15:09:10.431Z,95685.00
2022-09-18T15:12:01.449Z,95694.56
2022-09-18T15:14:41.531Z,95684.59
2022-09-18T15:17:23.026Z,95689.84
2022-09-18T15:20:14.677Z,95687.78
2022-09-18T15:22:41.487Z,95681.56
2022-09-18T15:25:23.375Z,95674.84
2022-09-18T15:27:53.374Z,95681.81
2022-09-18T15:30:22.841Z,95674.78
2022-09-18T15:32:56.093Z,95683.50
2022-09-18T15:35:36.517Z,95683.50
2022-09-18T15:38:17.082Z,95677.28
2022-09-18T15:40:45.762Z,95674.84
2022-09-18T15:43:30.217Z,95681.13
2022-09-18T15:46:26.153Z,95672.09
2022-09-18T15:48:53.734Z,95678.53
2022-09-18T15:51:35.243Z,95673.13
2022-09-18T15:54:10.936Z,95682.13
2022-09-18T15:56:48.042Z,95671.44
2022-09-18T15:59:33.690Z,95673.38
2022-09-18T16:02:04.280Z,95680.16
2022-09-18T16:04:33.334Z,95680.13
2022-09-18T16:07:05.007Z,95677.06
2022-09-18T16:09:43.326Z,95674.31
2022-09-18T16:12:29.637Z,95683.00
2022-09-18T16:15:07.088Z,95674.66
2022-09-18T16:17:37.093Z,95672.91
2022-09-18T16:20:22.529Z,95676.22
2022-09-18T16:22:56.718Z,95674.66
2022-09-18T16:25:27.079Z,95667.34
2022-09-18T16:27:56.179Z,95663.38
2022-09-18T16:30:27.365Z,95671.16
2022-09-18T16:33:18.297Z,95672.97
2022-09-18T16:35:46.947Z,95675.00
2022-09-18T16:38:13.624Z,95672.13
2022-09-18T16:40:41.942Z,95674.63
2022-09-18T16:43:08.445Z,95675.63
2022-09-18T16:45:34.956Z,95675.22
2022-09-18T16:48:01.740Z,95673.44
2022-09-18T16:50:28.263Z,95666.75
2022-09-18T16:52:57.510Z,95674.34
2022-09-18T16:55:26.400Z,95669.28
2022-09-18T16:57:53.321Z,95673.63
2022-09-18T17:00:19.946Z,95669.38
2022-09-18T17:02:46.559Z,95666.84
2022-09-18T17:05:13.099Z,95667.44
2022-09-18T17:07:39.571Z,95664.91
2022-09-18T17:10:06.450Z,95675.75
2022-09-18T17:12:33.070Z,95669.13
2022-09-18T17:14:59.519Z,95670.25
2022-09-18T17:17:26.001Z,95676.78
2022-09-18T17:19:52.535Z,95675.09
2022-09-18T17:22:22.450Z,95678.91
2022-09-18T17:24:49.455Z,95675.88
2022-09-18T17:27:15.973Z,95684.00
2022-09-18T17:29:42.451Z,95682.13
2022-09-18T17:32:09.139Z,95680.75
2022-09-18T17:34:35.847Z,95690.91
2022-09-18T17:37:02.417Z,95690.38
2022-09-18T17:39:29.057Z,95685.56
2022-09-18T17:41:55.553Z,95690.88
2022-09-18T17:44:22.967Z,95694.50
2022-09-18T17:46:50.095Z,95691.69
2022-09-18T17:49:17.162Z,95698.84
2022-09-18T17:51:43.633Z,95691.56
2022-09-18T17:54:11.174Z,95691.28
2022-09-18T17:56:38.011Z,95698.13
2022-09-18T17:59:08.630Z,95703.13
2022-09-18T18:01:37.855Z,95700.28
2022-09-18T18:04:05.352Z,95697.19
2022-09-18T18:06:32.762Z,95699.31
2022-09-18T18:08:59.223Z,95699.38
2022-09-18T18:11:25.991Z,95703.69
2022-09-18T18:13:54.011Z,95707.94
2022-09-18T18:16:23.923Z,95699.75
2022-09-18T18:18:53.750Z,95712.09
2022-09-18T18:21:21.292Z,95707.03
2022-09-18T18:23:47.745Z,95707.38
2022-09-18T18:26:14.350Z,95709.00
2022-09-18T18:28:41.514Z,95718.50
2022-09-18T18:31:10.877Z,95720.75
2022-09-18T18:33:39.707Z,95726.50
2022-09-18T18:36:14.059Z,95733.88
2022-09-18T18:38:42.595Z,95731.66
2022-09-18T18:41:10.667Z,95725.13
2022-09-18T18:43:39.128Z,95725.75
2022-09-18T18:46:06.096Z,95738.75
2022-09-18T18:48:32.904Z,95744.16
2022-09-18T18:51:04.728Z,95753.25
2022-09-18T18:53:31.495Z,95754.56
2022-09-18T18:56:02.494Z,95759.28
2022-09-18T18:58:29.134Z,95758.69
2022-09-18T19:00:56.031Z,95761.16
2022-09-18T19:03:23.019Z,95758.03
2022-09-18T19:08:38.064Z,95758.25
2022-09-18T19:11:05.874Z,95760.31
2022-09-18T19:16:18.296Z,95756.25
2022-09-18T19:18:50.424Z,95759.50
2022-09-18T19:23:57.531Z,95755.72
2022-09-18T19:26:26.342Z,95760.81
2022-09-18T19:28:56.274Z,95761.75
2022-09-18T19:42:42.452Z,95775.91
2022-09-18T19:45:11.210Z,95770.19
2022-09-18T19:47:44.473Z,95767.19
2022-09-18T19:50:21.393Z,95781.34
2022-09-18T19:52:51.509Z,95771.56
2022-09-18T19:55:23.143Z,95767.25
2022-09-18T19:57:53.046Z,95776.81
2022-09-18T20:00:20.580Z,95780.72
2022-09-18T20:02:47.082Z,95771.28
2022-09-18T20:05:13.614Z,95776.25
2022-09-18T20:07:40.789Z,95767.78
2022-09-18T20:10:10.907Z,95766.13
2022-09-18T20:12:40.093Z,95772.66
2022-09-18T20:15:09.195Z,95781.03
2022-09-18T20:17:36.652Z,95781.09
2022-09-18T20:20:08.608Z,95784.13
2022-09-18T20:22:35.578Z,95784.94
2022-09-18T20:25:02.224Z,95779.84
2022-09-18T20:27:28.968Z,95787.72
2022-09-18T20:29:55.514Z,95801.72
2022-09-18T20:32:22.059Z,95801.94
2022-09-18T20:34:48.649Z,95800.31
2022-09-18T20:37:15.391Z,95806.97
2022-09-18T20:39:42.364Z,95807.09
2022-09-18T20:42:09.367Z,95798.25
2022-09-18T20:44:36.723Z,95799.66
2022-09-18T20:47:04.672Z,95799.50
2022-09-18T20:49:31.446Z,95803.13
2022-09-18T20:51:59.558Z,95803.88
2022-09-18T20:54:27.761Z,95783.38
2022-09-18T20:56:54.658Z,95775.25
2022-09-18T20:59:21.576Z,95769.13
2022-09-18T21:01:48.672Z,95763.34
2022-09-18T21:04:18.403Z,95769.13
2022-09-18T21:06:52.405Z,95775.03
2022-09-18T21:17:59.663Z,95774.88
2022-09-18T21:35:33.148Z,95779.34
2022-09-18T21:38:00.262Z,95777.16
2022-09-18T21:40:27.809Z,95778.00
2022-09-18T21:42:55.097Z,95772.66
2022-09-18T21:50:47.959Z,95770.81
2022-09-18T21:53:15.094Z,95786.13
2022-09-18T21:55:42.156Z,95777.06
2022-09-18T21:58:09.037Z,95771.13
2022-09-18T22:00:35.701Z,95778.22
2022-09-18T22:03:02.274Z,95778.69
2022-09-18T22:05:28.785Z,95774.41
2022-09-18T22:07:56.995Z,95777.22
2022-09-18T22:10:27.153Z,95773.25
2022-09-18T22:12:57.851Z,95775.81
2022-09-18T22:18:18.743Z,95774.81
2022-09-18T22:20:46.090Z,95773.31
2022-09-18T22:23:15.852Z,95776.72
2022-09-18T22:25:43.872Z,95770.88
2022-09-18T22:28:11.355Z,95777.69
2022-09-18T22:39:06.889Z,95780.75
2022-09-18T22:41:36.459Z,95787.75
2022-09-18T22:44:04.044Z,95784.03
2022-09-18T22:46:31.360Z,95786.47
2022-09-18T22:49:01.114Z,95788.44
2022-09-18T22:51:28.575Z,95790.75
2022-09-18T22:54:13.555Z,95785.34
2022-09-18T23:02:34.142Z,95789.84
2022-09-18T23:05:01.673Z,95794.47
2022-09-18T23:07:28.517Z,95780.09
2022-09-18T23:09:55.206Z,95791.59
2022-09-18T23:12:22.086Z,95794.03
2022-09-18T23:17:24.031Z,95782.91
2022-09-18T23:19:50.842Z,95784.09
2022-09-18T23:31:16.797Z,95784.91
2022-09-18T23:36:25.399Z,95791.75
2022-09-18T23:38:57.747Z,95780.25
2022-09-18T23:41:26.309Z,95782.38
2022-09-18T23:43:54.830Z,95787.22
2022-09-18T23:46:23.382Z,95781.72
2022-09-18T23:48:50.388Z,95787.47
2022-09-18T23:51:16.990Z,95785.41
